Time;durP1;ratioP1;P1;durP2;ratioP2;P2;SDS_P1;SDS_P2;PMS_P1;PMS_P2;Temp;Humidity;BMP_temperature;BMP_pressure;BME280_temperature;BME280_humidity;BME280_pressure;Samples;Min_cycle;Max_cycle;Signal;HPM_P1;HPM_P2
2021/08/06 00:00:31;;;;;;;9.27;4.63;;;;;;;15.90;89.79;100392.63;5071518;28;20067;-69
2021/08/06 00:02:57;;;;;;;11.67;4.07;;;;;;;15.88;90.00;100390.13;5071111;28;20438;-69
2021/08/06 00:05:22;;;;;;;9.50;4.13;;;;;;;15.99;89.35;100389.50;5071154;28;20111;-69
2021/08/06 00:07:47;;;;;;;5.57;3.80;;;;;;;15.99;89.56;100394.91;5070624;28;20419;-69
2021/08/06 00:10:13;;;;;;;11.87;3.93;;;;;;;15.93;89.76;100378.72;5070325;28;20149;-69
2021/08/06 00:12:39;;;;;;;11.30;4.40;;;;;;;15.97;90.04;100380.81;5069836;28;20059;-68
2021/08/06 00:15:05;;;;;;;7.53;3.47;;;;;;;16.07;89.45;100387.66;5070473;28;20032;-68
2021/08/06 00:17:30;;;;;;;8.25;3.72;;;;;;;16.04;90.14;100388.91;5053028;28;20043;-69
2021/08/06 00:19:56;;;;;;;13.97;4.50;;;;;;;15.99;89.84;100381.44;5070866;28;20037;-68
2021/08/06 00:22:21;;;;;;;6.83;4.23;;;;;;;15.97;89.50;100372.72;5070484;28;20032;-69
2021/08/06 00:24:46;;;;;;;8.23;4.43;;;;;;;15.99;89.25;100373.34;5070823;28;20024;-68
2021/08/06 00:27:12;;;;;;;8.20;4.20;;;;;;;16.02;89.36;100377.50;5070388;28;20043;-69
2021/08/06 00:29:37;;;;;;;9.13;4.73;;;;;;;15.94;89.56;100367.75;5069974;28;20056;-69
2021/08/06 00:32:03;;;;;;;10.50;4.33;;;;;;;15.90;90.12;100371.91;5069807;28;20040;-68
2021/08/06 00:34:29;;;;;;;8.18;3.92;;;;;;;15.99;90.19;100369.81;5052887;28;20784;-68
2021/08/06 00:36:54;;;;;;;6.93;4.40;;;;;;;16.03;89.63;100377.28;5069439;28;20048;-68
2021/08/06 00:39:22;;;;;;;7.65;4.47;;;;;;;16.07;89.88;100366.09;5053521;28;20119;-68
2021/08/06 00:41:48;;;;;;;9.30;4.77;;;;;;;16.02;89.61;100359.47;5069696;28;20425;-69
2021/08/06 00:44:16;;;;;;;12.00;5.95;;;;;;;15.92;89.98;100359.06;5069286;28;20259;-68
2021/08/06 00:46:42;;;;;;;9.57;5.50;;;;;;;15.97;89.97;100358.44;5069492;28;20043;-68
2021/08/06 00:49:08;;;;;;;10.48;5.22;;;;;;;16.02;89.78;100359.47;5069561;28;20032;-69
2021/08/06 00:51:41;;;;;;;8.98;5.20;;;;;;;15.92;90.20;100358.22;5069612;28;20067;-68
2021/08/06 00:54:09;;;;;;;8.98;5.13;;;;;;;16.01;90.49;100356.97;5069126;28;20036;-68
2021/08/06 00:56:47;;;;;;;;;;;;;;;15.98;90.40;100350.16;5054557;28;20032;-69
2021/08/06 00:59:13;;;;;;;8.75;4.93;;;;;;;16.05;90.48;100355.53;5070319;28;20328;-69
2021/08/06 01:01:39;;;;;;;12.53;5.47;;;;;;;15.95;90.52;100350.56;5052789;28;20020;-68
2021/08/06 01:04:19;;;;;;;9.35;4.97;;;;;;;15.90;90.59;100344.16;5068949;28;20282;-69
2021/08/06 01:06:49;;;;;;;11.05;4.38;;;;;;;16.02;90.41;100342.50;5052958;28;20029;-68
2021/08/06 01:09:24;;;;;;;8.73;4.68;;;;;;;16.03;90.72;100350.34;5052691;28;20537;-68
2021/08/06 01:11:54;;;;;;;7.75;4.55;;;;;;;15.96;91.12;100346.00;5069379;28;20076;-69
2021/08/06 01:14:23;;;;;;;14.57;5.22;;;;;;;15.92;91.07;100337.53;5052171;28;20032;-68
2021/08/06 01:16:54;;;;;;;15.32;5.32;;;;;;;15.90;91.41;100336.09;5069144;28;20098;-69
2021/08/06 01:19:40;;;;;;;9.77;4.75;;;;;;;15.80;91.88;100345.41;5053126;28;20033;-69
2021/08/06 01:22:38;;;;;;;10.55;4.35;;;;;;;15.80;92.06;100340.03;5052870;28;20043;-68
2021/08/06 01:25:07;;;;;;;8.88;4.35;;;;;;;15.86;91.93;100338.34;5068918;28;20032;-68
2021/08/06 01:27:40;;;;;;;5.93;4.07;;;;;;;15.83;92.12;100334.22;5068091;28;20123;-68
2021/08/06 01:30:08;;;;;;;8.18;4.10;;;;;;;15.78;92.27;100341.22;5069136;28;20063;-69
2021/08/06 01:32:36;;;;;;;8.13;4.90;;;;;;;15.82;92.23;100340.63;5069078;28;20044;-69
2021/08/06 01:35:06;;;;;;;14.00;5.72;;;;;;;15.83;92.66;100338.78;5068571;28;20028;-69
2021/08/06 01:37:32;;;;;;;7.85;4.70;;;;;;;15.85;92.40;100341.25;5068924;28;20028;-68
2021/08/06 01:40:01;;;;;;;6.45;3.50;;;;;;;15.86;92.35;100338.34;5068976;28;20032;-68
2021/08/06 01:42:37;;;;;;;8.13;3.70;;;;;;;15.85;92.51;100342.09;5067906;28;20116;-69
2021/08/06 01:45:08;;;;;;;10.93;4.90;;;;;;;15.84;92.36;100343.09;5068676;28;20527;-68
2021/08/06 01:47:48;;;;;;;9.10;4.60;;;;;;;15.82;92.93;100340.63;5069776;28;20106;-69
2021/08/06 01:50:28;;;;;;;8.55;4.25;;;;;;;15.81;92.72;100338.97;5068942;28;20413;-69
2021/08/06 01:53:03;;;;;;;8.35;4.53;;;;;;;15.79;93.01;100342.91;5068937;28;20033;-69
2021/08/06 01:55:41;;;;;;;5.88;4.20;;;;;;;15.85;92.94;100334.00;5068778;28;20524;-69
2021/08/06 01:58:12;;;;;;;10.48;4.25;;;;;;;15.80;93.31;100339.16;5068922;28;20048;-68
2021/08/06 02:00:41;;;;;;;8.40;4.35;;;;;;;15.83;92.97;100338.78;5052705;28;20060;-69
2021/08/06 02:03:08;;;;;;;5.65;3.20;;;;;;;15.91;93.19;100341.25;5068759;28;20449;-69
2021/08/06 02:05:35;;;;;;;6.72;4.13;;;;;;;15.91;93.13;100338.56;5052054;28;20040;-69
2021/08/06 02:08:10;;;;;;;13.20;4.22;;;;;;;15.86;93.43;100342.91;5053299;28;20025;-69
2021/08/06 02:10:39;;;;;;;7.45;3.78;;;;;;;15.93;93.04;100333.78;5068732;28;20043;-69
2021/08/06 02:13:05;;;;;;;6.57;3.90;;;;;;;15.98;93.09;100328.59;5068655;28;20038;-69
2021/08/06 02:15:34;;;;;;;9.57;4.82;;;;;;;15.95;92.92;100336.28;5052004;28;20033;-69
2021/08/06 02:18:00;;;;;;;8.88;4.03;;;;;;;15.91;93.21;100338.56;5051706;28;20063;-69
2021/08/06 02:20:38;;;;;;;8.35;3.45;;;;;;;15.89;92.96;100335.22;5068620;28;20450;-69
2021/08/06 02:23:06;;;;;;;6.72;3.60;;;;;;;15.91;92.97;100329.66;5069368;28;20368;-69
2021/08/06 02:25:35;;;;;;;13.32;3.65;;;;;;;15.94;93.32;100334.63;5068321;28;20102;-69
2021/08/06 02:28:02;;;;;;;7.63;4.00;;;;;;;15.91;93.42;100338.56;5067727;28;20135;-69
2021/08/06 02:30:34;;;;;;;7.30;3.80;;;;;;;15.86;93.71;100329.44;5053089;28;20036;-69
2021/08/06 02:33:00;;;;;;;7.67;3.97;;;;;;;15.77;93.87;100321.56;5051518;28;20029;-69
2021/08/06 02:35:26;;;;;;;5.03;3.60;;;;;;;15.74;93.97;100329.25;5068282;28;20652;-69
2021/08/06 02:37:52;;;;;;;11.18;3.78;;;;;;;15.69;94.04;100329.00;5069177;28;20113;-69
2021/08/06 02:40:18;;;;;;;10.20;4.88;;;;;;;15.71;94.18;100330.50;5072109;28;20416;-69
2021/08/06 02:42:44;;;;;;;8.33;3.93;;;;;;;15.72;93.75;100325.94;5055065;28;20044;-69
2021/08/06 02:45:10;;;;;;;7.72;3.75;;;;;;;15.76;93.75;100324.50;5071753;28;20104;-69
2021/08/06 02:47:36;;;;;;;7.28;3.72;;;;;;;15.80;93.77;100323.00;5071248;28;20119;-69
2021/08/06 02:50:02;;;;;;;8.60;4.20;;;;;;;15.81;93.52;100313.94;5072753;28;20029;-69
2021/08/06 02:52:29;;;;;;;10.38;3.92;;;;;;;15.78;93.36;100309.78;5071366;28;20481;-69
2021/08/06 02:54:54;;;;;;;5.05;3.92;;;;;;;15.87;93.58;100306.88;5071488;28;20040;-69
2021/08/06 02:57:20;;;;;;;6.43;3.93;;;;;;;15.92;93.79;100305.22;5071151;28;20054;-69
2021/08/06 02:59:45;;;;;;;8.53;4.93;;;;;;;15.94;93.37;100307.69;5071631;28;20042;-69
2021/08/06 03:02:11;;;;;;;6.53;4.50;;;;;;;15.89;93.45;100311.00;5072108;28;20040;-69
2021/08/06 03:04:37;;;;;;;;;;;;;;;15.97;93.33;100302.72;5071721;28;20137;-69
2021/08/06 03:07:08;;;;;;;9.68;4.43;;;;;;;15.87;93.28;100296.09;5055053;28;19912;-69
2021/08/06 03:09:34;;;;;;;7.53;4.32;;;;;;;15.87;93.59;100296.91;5054947;28;20033;-69
2021/08/06 03:12:00;;;;;;;7.30;4.70;;;;;;;15.87;93.87;100313.06;5054828;28;20052;-69
2021/08/06 03:14:32;;;;;;;9.05;4.90;;;;;;;15.77;93.79;100307.28;5055279;28;20032;-69
2021/08/06 03:16:57;;;;;;;11.75;5.20;;;;;;;15.71;93.42;100308.09;5070884;28;20036;-69
2021/08/06 03:19:23;;;;;;;10.05;4.55;;;;;;;15.70;93.60;100307.28;5070849;28;20335;-69
2021/08/06 03:21:49;;;;;;;9.40;4.43;;;;;;;15.73;94.33;100311.44;5054497;28;20094;-69
2021/08/06 03:24:15;;;;;;;;;;;;;;;15.79;93.23;100302.53;5054765;28;20128;-69
2021/08/06 03:26:42;;;;;;;10.23;5.85;;;;;;;15.75;92.94;100304.78;5070833;28;19924;-69
2021/08/06 03:29:08;;;;;;;8.25;5.07;;;;;;;15.70;93.28;100301.91;5070547;28;20036;-69
2021/08/06 03:31:33;;;;;;;13.57;5.23;;;;;;;15.75;93.18;100293.22;5071692;28;20055;-69
2021/08/06 03:33:59;;;;;;;8.43;4.63;;;;;;;15.73;93.02;100300.66;5054122;28;20112;-69
2021/08/06 03:36:25;;;;;;;10.25;5.35;;;;;;;15.71;93.00;100291.97;5070582;28;20097;-69
2021/08/06 03:38:52;;;;;;;7.88;5.03;;;;;;;15.73;93.12;100298.81;5070716;28;20486;-69
2021/08/06 03:41:18;;;;;;;9.43;5.23;;;;;;;15.72;93.47;100289.06;5054137;28;20056;-69
2021/08/06 03:43:44;;;;;;;7.70;5.05;;;;;;;15.72;93.15;100285.56;5053886;28;20267;-69
2021/08/06 03:46:11;;;;;;;12.95;4.90;;;;;;;15.75;93.04;100290.50;5070054;28;20047;-69
2021/08/06 03:48:36;;;;;;;9.23;5.33;;;;;;;15.68;92.96;100292.34;5070248;28;20041;-69
2021/08/06 03:51:02;;;;;;;15.73;5.32;;;;;;;15.68;92.51;100292.34;5070145;28;20028;-69
2021/08/06 03:53:28;;;;;;;8.07;5.25;;;;;;;15.64;92.77;100291.97;5070378;28;20063;-69
2021/08/06 03:55:54;;;;;;;6.00;4.77;;;;;;;15.63;92.58;100288.41;5069962;28;20796;-69
2021/08/06 03:58:23;;;;;;;7.75;4.45;;;;;;;15.63;92.32;100292.97;5054407;28;20017;-69
2021/08/06 04:00:49;;;;;;;7.15;4.90;;;;;;;15.63;92.25;100285.72;5053415;28;20097;-68
2021/08/06 04:03:15;;;;;;;7.87;5.17;;;;;;;15.55;92.08;100287.81;5070204;28;20040;-69
2021/08/06 04:05:41;;;;;;;6.57;5.05;;;;;;;15.56;92.32;100286.75;5070035;28;20027;-69
2021/08/06 04:08:08;;;;;;;6.97;4.93;;;;;;;15.45;92.27;100287.38;5069978;28;20039;-69
2021/08/06 04:10:38;;;;;;;7.20;4.40;;;;;;;15.46;92.25;100287.19;5070049;28;20040;-69
2021/08/06 04:13:05;;;;;;;8.13;4.90;;;;;;;15.41;92.31;100285.09;5069817;28;20028;-69
2021/08/06 04:15:30;;;;;;;9.77;5.40;;;;;;;15.48;92.27;100290.50;5069691;28;20090;-68
2021/08/06 04:17:56;;;;;;;9.68;5.40;;;;;;;15.45;92.37;100282.81;5053253;28;20449;-69
2021/08/06 04:20:22;;;;;;;7.07;4.70;;;;;;;15.47;91.94;100279.94;5053133;28;20032;-69
2021/08/06 04:22:49;;;;;;;8.45;4.97;;;;;;;15.46;92.14;100271.03;5069833;28;20707;-69
2021/08/06 04:25:15;;;;;;;8.63;4.88;;;;;;;15.54;91.52;100264.63;5069582;28;20032;-69
2021/08/06 04:27:40;;;;;;;9.47;5.10;;;;;;;15.58;91.28;100285.53;5070137;28;20032;-69
2021/08/06 04:30:08;;;;;;;11.47;5.50;;;;;;;15.61;91.33;100276.19;5069758;28;20341;-69
2021/08/06 04:32:34;;;;;;;26.23;5.85;;;;;;;15.59;91.25;100280.97;5053095;28;20461;-69
2021/08/06 04:34:59;;;;;;;8.23;4.88;;;;;;;15.53;91.45;100274.56;5069474;28;20082;-69
2021/08/06 04:37:25;;;;;;;8.37;5.03;;;;;;;15.46;91.40;100272.91;5069425;28;20596;-69
2021/08/06 04:39:51;;;;;;;12.07;5.97;;;;;;;15.63;91.13;100274.13;5069487;28;20037;-69
2021/08/06 04:42:16;;;;;;;5.47;4.57;;;;;;;15.63;90.88;100264.19;5070025;28;20127;-69
2021/08/06 04:44:43;;;;;;;8.73;5.47;;;;;;;15.80;90.61;100270.03;5068772;28;20503;-69
2021/08/06 04:47:08;;;;;;;11.95;4.97;;;;;;;15.78;90.73;100276.63;5068453;28;20040;-69
2021/08/06 04:49:34;;;;;;;12.43;5.47;;;;;;;15.87;90.40;100259.22;5068886;28;20143;-69
2021/08/06 04:52:00;;;;;;;8.00;5.55;;;;;;;15.79;90.33;100262.97;5051961;28;20086;-69
2021/08/06 04:54:26;;;;;;;7.70;4.80;;;;;;;15.68;90.42;100260.88;5068535;28;20374;-69
2021/08/06 04:56:52;;;;;;;7.00;4.55;;;;;;;15.85;90.29;100271.25;5068514;28;20047;-69
2021/08/06 04:59:18;;;;;;;10.07;5.35;;;;;;;15.71;89.89;100270.44;5052707;28;20074;-69
2021/08/06 05:01:43;;;;;;;7.00;5.17;;;;;;;15.58;90.42;100265.88;5068834;28;20032;-69
2021/08/06 05:04:09;;;;;;;6.67;5.10;;;;;;;15.63;90.71;100276.81;5069329;28;20032;-69
2021/08/06 05:06:34;;;;;;;8.63;5.50;;;;;;;15.75;90.72;100272.50;5068895;28;20612;-69
2021/08/06 05:08:59;;;;;;;8.40;6.10;;;;;;;15.74;89.88;100265.47;5069072;28;20041;-69
2021/08/06 05:11:26;;;;;;;8.93;5.03;;;;;;;15.91;90.07;100276.63;5052318;28;20068;-69
2021/08/06 05:13:51;;;;;;;10.80;5.22;;;;;;;16.15;88.94;100271.63;5052472;28;20483;-69
2021/08/06 05:16:17;;;;;;;8.88;5.50;;;;;;;16.22;87.23;100258.97;5069548;28;20081;-69
2021/08/06 05:18:43;;;;;;;6.63;4.60;;;;;;;16.34;86.97;100268.06;5069168;28;20039;-69
2021/08/06 05:21:08;;;;;;;8.87;4.63;;;;;;;16.68;86.37;100266.88;5052411;28;20279;-69
2021/08/06 05:23:36;;;;;;;6.13;4.93;;;;;;;17.42;81.14;100261.06;5052279;28;20028;-69
2021/08/06 05:26:02;;;;;;;5.70;4.45;;;;;;;17.88;78.52;100265.28;5068716;28;20044;-68
2021/08/06 05:28:28;;;;;;;4.93;4.38;;;;;;;18.25;76.08;100255.34;5068239;28;20040;-68
2021/08/06 05:30:53;;;;;;;5.27;4.17;;;;;;;18.20;77.25;100252.50;5069169;28;20604;-68
2021/08/06 05:33:19;;;;;;;5.97;3.80;;;;;;;18.52;75.33;100255.06;5068527;28;20389;-68
2021/08/06 05:35:44;;;;;;;5.65;3.33;;;;;;;19.01;72.70;100253.19;5068579;28;20342;-68
2021/08/06 05:38:10;;;;;;;7.27;3.67;;;;;;;18.78;72.81;100245.81;5069721;28;20529;-69
2021/08/06 05:40:40;;;;;;;3.92;3.53;;;;;;;18.97;72.44;100241.19;5069016;28;20036;-69
2021/08/06 05:43:08;;;;;;;4.88;3.53;;;;;;;19.87;70.00;100232.03;5068501;28;20123;-69
2021/08/06 05:45:34;;;;;;;8.10;3.88;;;;;;;19.40;70.68;100238.22;5068668;28;20694;-68
2021/08/06 05:48:00;;;;;;;4.22;3.55;;;;;;;19.23;69.94;100234.53;5068168;28;20040;-68
2021/08/06 05:50:38;;;;;;;3.88;3.40;;;;;;;20.00;69.12;100241.81;5068863;28;20044;-68
2021/08/06 05:53:03;;;;;;;3.95;3.55;;;;;;;20.38;66.87;100235.03;5068485;28;20089;-69
2021/08/06 05:55:29;;;;;;;4.83;3.40;;;;;;;20.96;65.79;100231.31;5051909;28;20040;-69
2021/08/06 05:57:59;;;;;;;4.75;3.60;;;;;;;20.31;66.74;100234.34;5068245;28;20035;-69
2021/08/06 06:00:25;;;;;;;3.43;3.07;;;;;;;20.51;65.49;100229.34;5068383;28;20028;-69
2021/08/06 06:02:58;;;;;;;5.32;3.25;;;;;;;19.65;69.13;100236.38;5068165;28;20607;-69
2021/08/06 06:05:46;;;;;;;7.20;4.38;;;;;;;19.23;69.31;100231.84;5068083;28;20028;-69
2021/08/06 06:08:12;;;;;;;6.43;3.63;;;;;;;19.17;70.05;100230.91;5068062;28;20028;-69
2021/08/06 06:10:37;;;;;;;3.72;3.20;;;;;;;19.76;69.06;100230.13;5069392;28;20052;-69
2021/08/06 06:13:05;;;;;;;7.00;3.83;;;;;;;20.31;66.39;100232.44;5070578;28;20117;-69
2021/08/06 06:15:30;;;;;;;6.25;3.25;;;;;;;20.57;65.64;100230.28;5071992;28;20469;-69
2021/08/06 06:17:56;;;;;;;4.63;4.03;;;;;;;19.90;66.53;100228.88;5055481;28;20040;-69
2021/08/06 06:20:23;;;;;;;4.35;3.95;;;;;;;19.81;67.46;100214.03;5071999;28;20099;-69
2021/08/06 06:22:50;;;;;;;4.78;4.00;;;;;;;20.18;66.58;100225.41;5072088;28;20036;-70
2021/08/06 06:25:17;;;;;;;6.60;4.38;;;;;;;20.00;66.64;100225.56;5071914;28;20032;-69
2021/08/06 06:28:03;;;;;;;6.28;4.38;;;;;;;19.82;66.60;100216.47;5054545;28;20358;-69
2021/08/06 06:30:35;;;;;;;5.30;3.85;;;;;;;20.62;65.29;100220.34;5072082;28;20066;-70
2021/08/06 06:33:03;;;;;;;4.90;4.35;;;;;;;19.61;67.14;100215.16;5072045;28;20485;-69
2021/08/06 06:35:31;;;;;;;4.65;4.00;;;;;;;19.98;65.95;100216.84;5071574;28;20055;-69
2021/08/06 06:37:57;;;;;;;5.35;3.90;;;;;;;19.26;68.67;100209.72;5054899;28;20127;-69
2021/08/06 06:40:25;;;;;;;4.95;4.00;;;;;;;20.01;66.51;100208.22;5055298;28;20031;-69
2021/08/06 06:42:52;;;;;;;5.47;3.50;;;;;;;21.03;64.15;100212.16;5055238;28;20526;-69
2021/08/06 06:45:20;;;;;;;4.30;3.83;;;;;;;21.38;64.07;100213.84;5071465;28;20098;-70
2021/08/06 06:47:50;;;;;;;4.53;3.97;;;;;;;21.19;62.83;100211.34;5054850;28;20423;-69
2021/08/06 06:50:22;;;;;;;4.20;3.50;;;;;;;20.73;64.09;100207.00;5071451;28;20028;-69
2021/08/06 06:52:49;;;;;;;7.35;4.30;;;;;;;21.40;61.96;100209.84;5055068;28;20036;-70
2021/08/06 06:55:15;;;;;;;5.88;3.35;;;;;;;20.40;63.47;100198.47;5072432;28;20131;-70
2021/08/06 06:57:52;;;;;;;3.55;3.25;;;;;;;20.47;63.59;100192.91;5071242;28;20051;-69
2021/08/06 07:00:25;;;;;;;3.92;3.10;;;;;;;20.65;61.68;100202.78;5054996;28;20350;-69
2021/08/06 07:02:50;;;;;;;6.40;3.22;;;;;;;20.81;62.29;100191.16;5071309;28;20036;-69
2021/08/06 07:05:16;;;;;;;5.47;3.63;;;;;;;21.27;61.48;100191.94;5054562;28;20339;-69
2021/08/06 07:07:42;;;;;;;5.20;3.53;;;;;;;21.84;59.54;100187.38;5071109;28;20033;-70
2021/08/06 07:10:09;;;;;;;5.13;3.00;;;;;;;21.67;59.39;100187.41;5071422;28;20047;-70
2021/08/06 07:12:36;;;;;;;4.55;3.25;;;;;;;21.32;61.62;100191.19;5071229;28;20112;-70
2021/08/06 07:15:04;;;;;;;3.50;3.17;;;;;;;21.45;60.26;100190.09;5054457;28;20032;-69
2021/08/06 07:17:34;;;;;;;3.10;2.80;;;;;;;21.61;60.33;100180.25;5070916;28;20079;-70
2021/08/06 07:20:00;;;;;;;4.45;3.05;;;;;;;22.21;58.24;100184.91;5071194;28;20476;-70
2021/08/06 07:22:26;;;;;;;4.68;2.90;;;;;;;21.12;60.27;100191.69;5070992;28;20024;-70
2021/08/06 07:24:53;;;;;;;3.08;2.78;;;;;;;20.80;61.17;100192.22;5069787;28;20036;-70
2021/08/06 07:27:20;;;;;;;;;;;;;;;20.76;62.46;100193.75;5070823;28;20078;-70
2021/08/06 07:29:45;;;;;;;4.82;2.97;;;;;;;20.61;63.09;100193.50;5070498;28;19908;-70
2021/08/06 07:32:11;;;;;;;5.07;3.63;;;;;;;20.60;63.48;100197.25;5070746;28;20379;-70
2021/08/06 07:34:37;;;;;;;4.28;3.08;;;;;;;20.41;63.25;100188.44;5054201;28;20055;-70
2021/08/06 07:37:03;;;;;;;4.18;3.60;;;;;;;20.60;63.64;100202.69;5070509;28;20028;-69
2021/08/06 07:39:28;;;;;;;3.95;2.92;;;;;;;21.70;60.79;100192.34;5070813;28;20483;-70
2021/08/06 07:41:54;;;;;;;3.45;3.15;;;;;;;22.22;60.42;100200.16;5070447;28;20036;-70
2021/08/06 07:44:19;;;;;;;5.65;3.72;;;;;;;20.96;61.79;100200.63;5053908;28;20024;-69
2021/08/06 07:46:45;;;;;;;4.80;3.00;;;;;;;21.20;61.82;100196.69;5070273;28;20028;-69
2021/08/06 07:49:11;;;;;;;5.18;3.50;;;;;;;21.02;62.65;100191.50;5070549;28;20032;-70
2021/08/06 07:51:38;;;;;;;6.32;3.30;;;;;;;21.59;60.45;100196.00;5070427;28;20032;-69
2021/08/06 07:54:04;;;;;;;4.40;3.20;;;;;;;22.00;60.92;100196.56;5070064;28;20033;-69
2021/08/06 07:56:30;;;;;;;4.50;3.92;;;;;;;22.30;60.71;100194.25;5069958;28;20048;-70
2021/08/06 07:58:55;;;;;;;4.50;3.70;;;;;;;22.52;59.30;100198.84;5053739;28;20029;-70
2021/08/06 08:01:21;;;;;;;3.53;3.23;;;;;;;21.90;59.72;100192.63;5071357;28;20081;-70
2021/08/06 08:03:47;;;;;;;4.32;3.17;;;;;;;21.81;61.39;100193.31;5053538;28;20278;-70
2021/08/06 08:06:13;;;;;;;4.90;3.70;;;;;;;22.48;59.67;100190.41;5053378;28;20043;-70
2021/08/06 08:08:39;;;;;;;;;;;;;;;23.33;57.87;100187.97;5053814;28;20385;-70
2021/08/06 08:11:05;;;;;;;5.40;3.00;;;;;;;23.68;55.18;100186.56;5070231;28;19913;-70
2021/08/06 08:13:30;;;;;;;4.15;3.03;;;;;;;24.00;53.99;100191.97;5053078;28;20523;-70
2021/08/06 08:15:59;;;;;;;3.90;3.25;;;;;;;22.44;57.56;100189.25;5053498;28;20044;-70
2021/08/06 08:18:26;;;;;;;6.07;2.85;;;;;;;22.55;58.04;100182.03;5069934;28;20016;-69
2021/08/06 08:20:52;;;;;;;4.22;3.38;;;;;;;22.50;56.54;100180.09;5070009;28;20032;-70
2021/08/06 08:23:19;;;;;;;4.50;3.22;;;;;;;22.10;58.52;100170.34;5070767;28;20464;-69
2021/08/06 08:25:53;;;;;;;4.53;2.78;;;;;;;22.18;58.87;100177.22;5069667;28;20024;-69
2021/08/06 08:28:21;;;;;;;3.38;2.95;;;;;;;22.60;57.27;100168.50;5069325;28;20036;-69
2021/08/06 08:30:48;;;;;;;3.63;2.97;;;;;;;22.52;57.19;100177.94;5070962;28;20102;-69
2021/08/06 08:33:15;;;;;;;5.10;3.53;;;;;;;23.18;56.32;100163.34;5069726;28;20446;-70
2021/08/06 08:35:43;;;;;;;3.40;3.10;;;;;;;22.43;56.95;100175.91;5069276;28;20109;-69
2021/08/06 08:38:09;;;;;;;4.47;2.80;;;;;;;22.27;58.12;100174.94;5069662;28;20047;-69
2021/08/06 08:40:34;;;;;;;6.60;3.03;;;;;;;22.48;58.80;100171.38;5069879;28;20117;-69
2021/08/06 08:43:00;;;;;;;4.88;2.90;;;;;;;22.91;55.54;100175.06;5069703;28;20047;-70
2021/08/06 08:45:26;;;;;;;5.25;2.95;;;;;;;22.62;55.17;100182.66;5052963;28;20016;-69
2021/08/06 08:47:52;;;;;;;2.92;2.40;;;;;;;22.50;54.79;100174.66;5069559;28;20112;-70
2021/08/06 08:50:19;;;;;;;2.33;2.13;;;;;;;22.94;52.82;100179.16;5052890;28;20041;-69
2021/08/06 08:52:45;;;;;;;5.88;2.33;;;;;;;23.23;53.13;100173.47;5053127;28;20107;-69
2021/08/06 08:55:12;;;;;;;2.58;2.00;;;;;;;23.65;52.08;100164.47;5069334;28;20453;-70
2021/08/06 08:57:37;;;;;;;3.00;2.22;;;;;;;23.32;51.98;100166.41;5069266;28;20031;-69
2021/08/06 09:00:08;;;;;;;4.28;2.30;;;;;;;23.50;52.71;100168.72;5069494;28;20029;-70
2021/08/06 09:02:38;;;;;;;2.58;2.38;;;;;;;23.68;51.72;100177.59;5069314;28;20424;-70
2021/08/06 09:05:24;;;;;;;2.45;2.25;;;;;;;22.88;51.90;100155.72;5052637;28;20033;-70
2021/08/06 09:07:55;;;;;;;2.38;2.17;;;;;;;23.49;50.03;100163.56;5069120;28;20462;-70
2021/08/06 09:10:55;;;;;;;3.88;1.70;;;;;;;23.84;49.97;100163.00;5069240;28;20458;-71
2021/08/06 09:13:46;;;;;;;2.45;2.22;;;;;;;24.06;48.71;100159.25;5061297;28;20078;-70
2021/08/06 09:16:14;;;;;;;3.58;2.08;;;;;;;24.29;48.48;100155.25;5069518;28;20028;-69
2021/08/06 09:18:42;;;;;;;2.53;1.80;;;;;;;24.61;47.07;100153.19;5067514;28;20021;-69
2021/08/06 09:21:17;;;;;;;3.90;2.37;;;;;;;23.70;50.30;100148.97;5068360;28;20039;-69
2021/08/06 09:23:53;;;;;;;4.57;2.22;;;;;;;23.74;49.32;100157.47;5050494;28;20366;-69
2021/08/06 09:26:28;;;;;;;;;;;;;;;23.86;48.79;100152.66;5067576;28;20396;-70
2021/08/06 09:29:21;;;;;;;2.27;2.00;;;;;;;23.88;49.01;100155.94;5067963;28;19916;-70
2021/08/06 09:31:50;;;;;;;2.47;2.00;;;;;;;23.80;49.03;100148.25;5065698;28;20139;-70
2021/08/06 09:34:18;;;;;;;4.60;2.15;;;;;;;24.45;48.88;100148.75;5067090;28;20077;-70
2021/08/06 09:37:09;;;;;;;6.00;2.08;;;;;;;24.34;47.34;100152.56;5066907;28;20060;-70
2021/08/06 09:39:44;;;;;;;2.53;2.00;;;;;;;24.04;49.73;100147.81;5068283;28;20029;-70
2021/08/06 09:42:20;;;;;;;3.05;2.72;;;;;;;24.71;48.14;100143.38;5066569;28;20347;-70
2021/08/06 09:44:55;;;;;;;;;;;;;;;25.37;46.86;100137.13;5067664;28;20038;-70
2021/08/06 09:47:22;;;;;;;5.70;2.67;;;;;;;23.62;49.86;100148.66;5068325;28;19920;-70
2021/08/06 09:49:51;;;;;;;5.78;2.53;;;;;;;23.77;48.83;100132.44;5072326;28;20267;-70
2021/08/06 09:52:16;;;;;;;2.60;2.40;;;;;;;24.37;47.88;100136.47;5071162;28;20028;-70
2021/08/06 09:54:49;;;;;;;6.40;3.10;;;;;;;23.82;47.60;100132.44;5071219;28;20508;-70
2021/08/06 09:57:14;;;;;;;2.42;2.20;;;;;;;24.87;46.30;100138.78;5070871;28;20042;-70
2021/08/06 09:59:40;;;;;;;2.92;2.30;;;;;;;24.95;45.99;100149.13;5072266;28;20020;-70
2021/08/06 10:02:16;;;;;;;4.43;2.40;;;;;;;24.89;46.96;100136.56;5071757;28;20862;-70
2021/08/06 10:04:44;;;;;;;2.97;2.40;;;;;;;25.38;45.54;100128.66;5071920;28;20043;-71
2021/08/06 10:07:10;;;;;;;4.80;2.65;;;;;;;25.45;44.73;100134.66;5071402;28;20043;-70
2021/08/06 10:09:36;;;;;;;4.35;2.30;;;;;;;23.77;48.19;100126.97;5071766;28;20778;-70
2021/08/06 10:12:03;;;;;;;3.90;2.30;;;;;;;24.78;46.76;100135.75;5071494;28;20123;-70
2021/08/06 10:14:30;;;;;;;3.25;2.58;;;;;;;24.89;46.54;100131.09;5070547;28;20040;-71
2021/08/06 10:16:56;;;;;;;2.60;2.40;;;;;;;24.64;46.94;100138.19;5053557;28;20063;-70
2021/08/06 10:19:22;;;;;;;4.90;2.63;;;;;;;24.45;47.21;100132.41;5070629;28;20063;-71
2021/08/06 10:21:48;;;;;;;2.30;2.00;;;;;;;24.54;46.73;100130.00;5070142;28;20083;-71
2021/08/06 10:24:16;;;;;;;2.35;2.15;;;;;;;24.38;46.23;100121.72;5070701;28;20024;-70
2021/08/06 10:26:44;;;;;;;2.50;2.10;;;;;;;23.35;48.27;100135.97;5071048;28;20581;-70
2021/08/06 10:29:10;;;;;;;3.67;2.25;;;;;;;24.33;46.59;100129.91;5069693;28;20050;-70
2021/08/06 10:31:35;;;;;;;5.45;2.88;;;;;;;24.36;46.14;100123.91;5071194;28;20730;-70
2021/08/06 10:34:09;;;;;;;2.77;2.13;;;;;;;25.45;46.47;100118.25;5053399;28;20047;-71
2021/08/06 10:36:45;;;;;;;4.68;2.40;;;;;;;25.67;44.65;100098.78;5070928;28;20040;-71
2021/08/06 10:39:30;;;;;;;4.30;2.55;;;;;;;25.42;45.41;100107.88;5071118;28;20283;-71
2021/08/06 10:41:55;;;;;;;3.80;2.22;;;;;;;25.39;46.40;100102.16;5070448;28;20032;-71
2021/08/06 10:44:21;;;;;;;4.30;2.50;;;;;;;25.49;45.70;100092.00;5070537;28;20312;-71
2021/08/06 10:46:52;;;;;;;7.17;3.40;;;;;;;25.09;46.09;100095.59;5070846;28;20032;-70
2021/08/06 10:49:18;;;;;;;4.72;3.05;;;;;;;25.48;46.01;100103.22;5070583;28;20037;-71
2021/08/06 10:51:44;;;;;;;4.88;2.20;;;;;;;25.17;44.00;100106.00;5070790;28;20056;-71
2021/08/06 10:54:09;;;;;;;4.10;2.28;;;;;;;25.13;44.62;100096.69;5069817;28;20433;-70
2021/08/06 10:56:39;;;;;;;5.60;2.10;;;;;;;26.28;41.78;100086.75;5069726;28;20033;-71
2021/08/06 10:59:12;;;;;;;3.15;2.33;;;;;;;25.82;43.39;100095.16;5069490;28;20037;-71
2021/08/06 11:01:39;;;;;;;3.25;2.47;;;;;;;25.99;44.68;100097.59;5069703;28;20085;-71
2021/08/06 11:04:10;;;;;;;3.75;1.90;;;;;;;25.92;43.81;100090.78;5069547;28;20377;-71
2021/08/06 11:06:41;;;;;;;3.00;2.35;;;;;;;25.67;43.09;100087.03;5070426;28;20102;-71
2021/08/06 11:09:30;;;;;;;3.83;2.42;;;;;;;25.01;45.77;100090.72;5070550;28;20044;-69
2021/08/06 11:12:02;;;;;;;3.13;2.10;;;;;;;24.48;46.61;100090.13;5070315;28;20333;-72
2021/08/06 11:14:28;;;;;;;3.25;2.40;;;;;;;24.91;45.46;100097.00;5069346;28;20040;-72
2021/08/06 11:17:11;;;;;;;4.03;1.87;;;;;;;24.85;44.35;100087.97;5069284;28;20054;-72
2021/08/06 11:19:55;;;;;;;7.75;2.00;;;;;;;24.69;46.10;100097.25;5070251;28;20032;-69
2021/08/06 11:22:36;;;;;;;4.50;2.08;;;;;;;24.24;46.14;100076.97;5070315;28;20024;-72
2021/08/06 11:25:06;;;;;;;2.63;2.28;;;;;;;23.95;46.55;100065.69;5070049;28;20120;-72
2021/08/06 11:27:40;;;;;;;4.88;2.28;;;;;;;24.97;45.54;100078.69;5069903;28;20058;-72
2021/08/06 11:30:10;;;;;;;3.03;2.38;;;;;;;24.75;45.13;100074.34;5070269;28;20048;-72
2021/08/06 11:33:09;;;;;;;2.95;2.17;;;;;;;25.40;43.93;100066.38;5069266;28;20024;-69